Time;durP1;ratioP1;P1;durP2;ratioP2;P2;SDS_P1;SDS_P2;PMS_P1;PMS_P2;Temp;Humidity;BMP_temperature;BMP_pressure;BME280_temperature;BME280_humidity;BME280_pressure;Samples;Min_cycle;Max_cycle;Signal;HPM_P1;HPM_P2
2023/01/10 00:00:33;;;;;;;17.98;4.50;;;;;;;4.81;100.00;101060.53;4973999;28;20030;-73
2023/01/10 00:02:59;;;;;;;17.83;4.07;;;;;;;4.77;100.00;101052.00;4975282;28;20062;-73
2023/01/10 00:05:25;;;;;;;16.85;3.97;;;;;;;4.75;100.00;101065.59;4972558;28;20054;-73
2023/01/10 00:07:50;;;;;;;13.25;3.90;;;;;;;4.74;100.00;101069.31;4970759;28;20069;-73
2023/01/10 00:10:15;;;;;;;13.25;3.85;;;;;;;4.74;100.00;101073.81;4975265;28;20077;-73
2023/01/10 00:15:25;;;;;;;17.02;3.92;;;;;;;4.73;100.00;101085.56;4964117;28;20054;-73
2023/01/10 00:17:50;;;;;;;16.27;3.63;;;;;;;4.72;100.00;101084.72;4975643;28;20022;-73
2023/01/10 00:20:16;;;;;;;15.40;4.00;;;;;;;4.79;100.00;101091.03;4973927;28;20434;-73
2023/01/10 00:22:41;;;;;;;12.63;3.78;;;;;;;4.70;100.00;101100.16;4974455;28;20043;-73
2023/01/10 00:25:06;;;;;;;14.35;4.18;;;;;;;4.70;100.00;101105.53;4972743;28;20022;-73
2023/01/10 00:27:32;;;;;;;13.00;3.33;;;;;;;4.70;100.00;101108.22;4974352;28;20463;-73
2023/01/10 00:30:00;;;;;;;15.32;3.72;;;;;;;4.67;100.00;101116.63;4972857;28;20026;-73
2023/01/10 00:32:25;;;;;;;15.48;4.00;;;;;;;4.66;100.00;101122.16;4972844;28;20027;-73
2023/01/10 00:34:51;;;;;;;14.70;3.50;;;;;;;4.65;100.00;101125.84;4973075;28;20045;-73
2023/01/10 00:37:16;;;;;;;15.23;3.60;;;;;;;4.65;100.00;101128.53;4973285;28;20058;-73
2023/01/10 00:39:42;;;;;;;15.80;3.90;;;;;;;4.61;100.00;101123.50;4988928;28;20118;-73
2023/01/10 00:44:53;;;;;;;18.33;4.38;;;;;;;4.53;100.00;101134.31;4975518;28;20619;-73
2023/01/10 00:47:19;;;;;;;14.52;4.05;;;;;;;4.50;100.00;101139.16;4973722;28;20043;-73
2023/01/10 00:49:44;;;;;;;19.20;4.40;;;;;;;4.48;100.00;101141.22;4973137;28;20062;-73
2023/01/10 00:52:09;;;;;;;18.42;4.82;;;;;;;4.43;100.00;101134.53;4974469;28;22165;-74
2023/01/10 00:54:35;;;;;;;23.00;4.47;;;;;;;4.50;100.00;101141.84;4971823;28;20034;-72
2023/01/10 00:57:00;;;;;;;15.02;4.28;;;;;;;4.41;100.00;101147.28;4972835;28;20041;-73
2023/01/10 00:59:25;;;;;;;18.75;4.25;;;;;;;4.40;100.00;101148.28;4974434;28;20030;-73
2023/01/10 01:01:51;;;;;;;15.02;3.78;;;;;;;4.40;100.00;101150.97;4969948;28;20638;-73
2023/01/10 01:04:17;;;;;;;15.13;4.00;;;;;;;4.39;100.00;101140.41;4972960;28;20117;-73
2023/01/10 01:06:44;;;;;;;16.60;4.28;;;;;;;4.37;100.00;101140.59;4972662;28;20462;-73
2023/01/10 01:09:10;;;;;;;25.70;5.15;;;;;;;4.37;100.00;101151.31;4972676;28;20404;-73
2023/01/10 01:11:35;;;;;;;14.90;4.35;;;;;;;4.37;100.00;101153.16;4973372;28;20041;-73
2023/01/10 01:14:00;;;;;;;17.38;4.82;;;;;;;4.41;100.00;101154.50;4972218;28;20030;-74
2023/01/10 01:16:26;;;;;;;11.73;4.10;;;;;;;4.37;100.00;101159.34;4973765;28;20062;-73
2023/01/10 01:18:51;;;;;;;18.92;4.85;;;;;;;4.38;100.00;101176.28;4973460;28;20054;-73
2023/01/10 01:21:16;;;;;;;14.73;4.93;;;;;;;4.39;100.00;101178.78;4972480;28;20023;-73
2023/01/10 01:23:42;;;;;;;25.17;6.20;;;;;;;4.34;100.00;101175.78;4971987;28;20035;-73
2023/01/10 01:26:07;;;;;;;22.92;7.30;;;;;;;4.35;100.00;101188.19;4974271;28;20126;-73
2023/01/10 01:28:32;;;;;;;24.38;8.02;;;;;;;4.37;100.00;101186.16;4972096;28;20035;-73
2023/01/10 01:30:58;;;;;;;23.77;8.73;;;;;;;4.38;100.00;101184.31;4970573;28;20115;-74
2023/01/10 01:33:23;;;;;;;28.38;10.10;;;;;;;4.35;100.00;101188.19;4972180;28;20065;-73
2023/01/10 01:35:50;;;;;;;22.73;9.05;;;;;;;4.42;100.00;101199.00;4972224;28;20077;-73
2023/01/10 01:38:16;;;;;;;22.05;9.30;;;;;;;4.41;100.00;101202.72;4972780;28;20387;-73
2023/01/10 01:40:42;;;;;;;21.38;8.80;;;;;;;4.41;100.00;101200.88;4974008;28;20027;-73
2023/01/10 01:43:23;;;;;;;25.98;8.95;;;;;;;4.45;100.00;101209.38;4971575;28;20034;-73
2023/01/10 01:45:49;;;;;;;31.67;10.15;;;;;;;4.50;100.00;101206.16;4971609;28;20038;-73
2023/01/10 01:48:19;;;;;;;28.00;8.02;;;;;;;4.47;100.00;101215.41;4972238;28;20034;-73
2023/01/10 01:50:54;;;;;;;23.25;7.78;;;;;;;4.48;100.00;101213.56;4973223;28;20031;-73
2023/01/10 01:53:28;;;;;;;21.17;7.47;;;;;;;4.48;100.00;101221.59;4973404;28;20113;-74
2023/01/10 01:55:56;;;;;;;18.17;6.45;;;;;;;4.50;100.00;101223.09;4972434;28;20055;-73
2023/01/10 01:58:29;;;;;;;20.52;6.20;;;;;;;4.56;100.00;101225.09;4972289;28;20035;-73
2023/01/10 02:00:57;;;;;;;18.13;6.28;;;;;;;4.59;100.00;101226.59;4970703;28;20034;-73
2023/01/10 02:03:23;;;;;;;19.95;5.40;;;;;;;4.57;100.00;101220.53;4967490;28;20066;-73
2023/01/10 02:05:48;;;;;;;19.27;6.10;;;;;;;4.58;100.00;101222.22;4970183;28;20027;-73
2023/01/10 02:08:14;;;;;;;22.00;6.28;;;;;;;4.58;100.00;101225.72;4971361;28;20026;-73
2023/01/10 02:10:47;;;;;;;23.50;5.38;;;;;;;4.60;100.00;101223.72;4972225;28;20034;-73
2023/01/10 02:13:14;;;;;;;19.88;5.88;;;;;;;4.61;100.00;101222.69;4971358;28;20090;-73
2023/01/10 02:15:39;;;;;;;19.67;5.40;;;;;;;4.61;100.00;101228.06;4972764;28;20656;-73
2023/01/10 02:18:05;;;;;;;21.08;6.18;;;;;;;4.62;100.00;101242.31;4972093;28;20121;-73
2023/01/10 02:20:58;;;;;;;17.92;5.05;;;;;;;4.63;100.00;101252.00;4971039;28;20038;-74
2023/01/10 02:24:11;;;;;;;21.85;5.95;;;;;;;4.65;100.00;101236.59;4970030;28;20047;-73
2023/01/10 02:26:46;;;;;;;18.00;4.68;;;;;;;4.63;100.00;101233.25;4913923;28;20045;-74
2023/01/10 02:29:48;;;;;;;17.15;4.15;;;;;;;4.64;100.00;101232.25;4969889;28;20388;-74
2023/01/10 02:32:39;;;;;;;15.65;4.68;;;;;;;4.66;100.00;101232.88;4970228;28;20113;-73
2023/01/10 02:35:21;;;;;;;12.65;4.50;;;;;;;4.64;100.00;101221.50;4972371;28;20114;-73
2023/01/10 02:37:58;;;;;;;16.75;4.30;;;;;;;4.65;100.00;101225.03;4973535;28;20031;-73
2023/01/10 02:40:48;;;;;;;13.48;3.75;;;;;;;4.63;100.00;101235.91;4972569;28;20042;-73
2023/01/10 02:43:19;;;;;;;20.88;4.50;;;;;;;4.62;100.00;101234.28;4969146;28;20034;-73
2023/01/10 02:45:58;;;;;;;21.63;4.78;;;;;;;4.61;100.00;101230.72;4971310;28;20027;-73
2023/01/10 02:48:24;;;;;;;21.02;4.82;;;;;;;4.57;100.00;101231.25;4971623;28;20504;-73
2023/01/10 02:51:02;;;;;;;15.85;4.50;;;;;;;4.57;100.00;101244.66;4971345;28;20039;-73
2023/01/10 02:53:38;;;;;;;16.40;4.07;;;;;;;4.54;100.00;101247.69;4971383;28;20042;-73
2023/01/10 02:56:25;;;;;;;19.02;4.15;;;;;;;4.52;100.00;101257.78;4973153;28;20031;-73
2023/01/10 02:59:05;;;;;;;17.20;4.43;;;;;;;4.53;100.00;101252.22;4972810;28;20490;-73
2023/01/10 03:01:51;;;;;;;22.80;4.13;;;;;;;4.48;100.00;101256.44;4968847;28;20509;-73
2023/01/10 03:04:24;;;;;;;16.58;4.43;;;;;;;4.46;100.00;101253.13;4970791;28;20035;-73
2023/01/10 03:07:05;;;;;;;18.40;4.20;;;;;;;4.44;100.00;101270.19;4970709;28;20066;-74
2023/01/10 03:10:08;;;;;;;18.75;5.05;;;;;;;4.41;100.00;101272.41;4972193;28;20043;-73
2023/01/10 03:12:44;;;;;;;14.85;3.25;;;;;;;4.40;100.00;101270.72;4963043;28;20076;-73
2023/01/10 03:15:12;;;;;;;20.42;4.82;;;;;;;4.36;100.00;101270.25;4972139;28;20039;-73
2023/01/10 03:17:40;;;;;;;18.65;3.78;;;;;;;4.39;100.00;101283.28;4973309;28;20031;-73
2023/01/10 03:20:06;;;;;;;19.80;4.18;;;;;;;4.39;100.00;101282.44;4974302;28;20042;-73
2023/01/10 03:22:36;;;;;;;18.73;3.88;;;;;;;4.36;100.00;101291.69;4975632;28;20039;-73
2023/01/10 03:25:05;;;;;;;21.73;4.45;;;;;;;4.38;100.00;101297.69;4975351;28;20498;-73
2023/01/10 03:27:47;;;;;;;16.77;4.55;;;;;;;4.41;100.00;101301.88;4976594;28;20039;-74
2023/01/10 03:30:38;;;;;;;21.92;4.28;;;;;;;4.46;100.00;101291.47;4973881;28;20030;-73
2023/01/10 03:33:04;;;;;;;18.35;3.97;;;;;;;4.47;100.00;101303.00;4973897;28;20089;-73
2023/01/10 03:35:57;;;;;;;18.92;4.10;;;;;;;4.48;100.00;101307.34;4975837;28;20503;-73
2023/01/10 03:38:45;;;;;;;18.58;4.35;;;;;;;4.52;100.00;101304.16;4975806;28;20034;-73
2023/01/10 03:41:23;;;;;;;16.75;4.80;;;;;;;4.50;100.00;101308.00;4973944;28;20402;-73
2023/01/10 03:46:59;;;;;;;21.00;3.78;;;;;;;4.53;100.00;101323.75;4972662;28;20070;-73
2023/01/10 03:49:26;;;;;;;19.63;4.32;;;;;;;4.55;100.00;101325.25;4975356;28;20034;-74
2023/01/10 03:51:53;;;;;;;14.30;3.70;;;;;;;4.55;100.00;101319.88;4975686;28;20102;-73
2023/01/10 03:54:18;;;;;;;23.25;4.40;;;;;;;4.56;100.00;101326.94;4974922;28;20368;-73
2023/01/10 03:56:46;;;;;;;21.52;5.35;;;;;;;4.58;100.00;101329.44;4976185;28;20034;-73
2023/01/10 03:59:11;;;;;;;21.00;4.53;;;;;;;4.58;100.00;101329.44;4973892;28;20046;-73
2023/01/10 04:01:37;;;;;;;17.15;3.40;;;;;;;4.60;100.00;101333.63;4973334;28;20512;-73
2023/01/10 04:04:03;;;;;;;23.35;4.40;;;;;;;4.58;100.00;101334.81;4974883;28;20113;-73
2023/01/10 04:06:28;;;;;;;21.27;3.65;;;;;;;4.61;100.00;101342.50;4972108;28;20030;-74
2023/01/10 04:08:53;;;;;;;17.75;4.13;;;;;;;4.61;100.00;101347.84;4974050;28;20039;-73
2023/01/10 04:11:19;;;;;;;24.25;4.00;;;;;;;4.60;100.00;101344.34;4975188;28;20479;-73
2023/01/10 04:13:44;;;;;;;20.33;4.72;;;;;;;4.62;100.00;101354.91;4974560;28;20551;-73
2023/01/10 04:16:10;;;;;;;19.55;3.72;;;;;;;4.60;100.00;101352.38;4975826;28;20034;-73
2023/01/10 04:18:35;;;;;;;21.65;3.90;;;;;;;4.63;100.00;101359.22;4973713;28;20039;-73
2023/01/10 04:21:00;;;;;;;22.35;4.53;;;;;;;4.63;100.00;101367.28;4974453;28;20027;-73
2023/01/10 04:23:26;;;;;;;23.38;4.05;;;;;;;4.58;100.00;101365.09;4972860;28;20125;-73
2023/01/10 04:25:51;;;;;;;21.83;4.05;;;;;;;4.60;100.00;101373.84;4972444;28;20033;-73
2023/01/10 04:28:16;;;;;;;25.27;4.53;;;;;;;4.61;100.00;101375.47;4973629;28;20050;-73
2023/01/10 04:30:42;;;;;;;29.35;5.45;;;;;;;4.62;100.00;101379.03;4974781;28;20033;-73
2023/01/10 04:33:09;;;;;;;19.10;3.90;;;;;;;4.63;100.00;101374.47;4974334;28;20054;-73
2023/01/10 04:35:34;;;;;;;23.77;3.75;;;;;;;4.62;100.00;101368.31;4974662;28;20043;-73
2023/01/10 04:37:59;;;;;;;21.60;4.50;;;;;;;4.63;100.00;101367.28;4974124;28;20121;-73
2023/01/10 04:40:25;;;;;;;25.20;4.60;;;;;;;4.67;100.00;101357.88;4974626;28;20030;-73
2023/01/10 04:42:50;;;;;;;23.67;4.63;;;;;;;4.65;100.00;101364.41;4973885;28;20034;-72
2023/01/10 04:45:17;;;;;;;23.27;4.40;;;;;;;4.61;100.00;101353.22;4973896;28;20131;-73
2023/01/10 04:47:42;;;;;;;27.20;3.83;;;;;;;4.61;100.00;101363.94;4973569;28;20049;-74
2023/01/10 04:50:08;;;;;;;25.88;4.00;;;;;;;4.59;100.00;101377.50;4973185;28;20035;-73
2023/01/10 04:52:33;;;;;;;22.33;4.18;;;;;;;4.55;100.00;101386.06;4975267;28;20034;-73
2023/01/10 04:54:59;;;;;;;21.50;3.65;;;;;;;4.56;100.00;101390.41;4973924;28;20037;-73
2023/01/10 04:57:24;;;;;;;26.90;4.20;;;;;;;4.57;100.00;101384.03;4974786;28;20093;-73
2023/01/10 04:59:49;;;;;;;22.17;4.60;;;;;;;4.59;100.00;101376.69;4972967;28;20049;-73
2023/01/10 05:02:15;;;;;;;27.80;4.65;;;;;;;4.60;100.00;101367.63;4972371;28;20027;-73
2023/01/10 05:04:40;;;;;;;26.27;4.28;;;;;;;4.58;100.00;101364.28;4974960;28;20062;-73
2023/01/10 05:07:05;;;;;;;19.73;3.95;;;;;;;4.56;100.00;101375.19;4973497;28;20475;-73
2023/01/10 05:09:30;;;;;;;24.52;4.13;;;;;;;4.59;100.00;101388.25;4975087;28;20667;-73
2023/01/10 05:11:56;;;;;;;29.00;4.82;;;;;;;4.60;100.00;101389.06;4974427;28;20105;-73
2023/01/10 05:14:21;;;;;;;19.88;3.67;;;;;;;4.61;100.00;101406.81;4973308;28;20093;-73
2023/01/10 05:16:46;;;;;;;21.50;4.10;;;;;;;4.57;100.00;101416.22;4973919;28;20034;-73
2023/01/10 05:19:12;;;;;;;23.10;4.05;;;;;;;4.56;100.00;101430.59;4972808;28;20038;-73
2023/01/10 05:21:37;;;;;;;26.27;4.50;;;;;;;4.57;100.00;101426.94;4958099;28;20023;-73
2023/01/10 05:24:03;;;;;;;25.00;4.80;;;;;;;4.59;100.00;101431.13;4962518;28;20471;-73
2023/01/10 05:26:28;;;;;;;28.92;4.80;;;;;;;4.58;100.00;101431.28;4973128;28;20113;-73
2023/01/10 05:28:53;;;;;;;24.48;4.50;;;;;;;4.62;100.00;101435.31;4973419;28;20026;-73
2023/01/10 05:31:19;;;;;;;19.73;4.45;;;;;;;4.64;100.00;101444.00;4973209;28;20038;-73
2023/01/10 05:33:46;;;;;;;25.30;4.20;;;;;;;4.66;100.00;101447.34;4973336;28;20034;-73
2023/01/10 05:36:11;;;;;;;22.63;4.82;;;;;;;4.66;100.00;101435.78;4972142;28;20153;-73
2023/01/10 05:38:37;;;;;;;22.83;4.65;;;;;;;4.64;100.00;101441.34;4972459;28;20471;-73
2023/01/10 05:41:02;;;;;;;28.67;5.28;;;;;;;4.64;100.00;101435.97;4974320;28;20030;-74
2023/01/10 05:43:27;;;;;;;33.13;5.85;;;;;;;4.68;100.00;101442.66;4971954;28;20431;-73
2023/01/10 05:45:53;;;;;;;27.38;4.65;;;;;;;4.67;100.00;101440.97;4972815;28;20037;-73
2023/01/10 05:48:18;;;;;;;22.13;4.45;;;;;;;4.67;100.00;101453.56;4986378;28;20031;-73
2023/01/10 05:50:45;;;;;;;20.08;4.18;;;;;;;4.70;100.00;101451.38;4974366;28;20066;-73
2023/01/10 05:53:10;;;;;;;27.98;4.15;;;;;;;4.66;100.00;101458.06;4973224;28;21130;-74
2023/01/10 05:55:36;;;;;;;23.98;4.75;;;;;;;4.65;100.00;101458.25;4972598;28;20093;-73
2023/01/10 05:58:01;;;;;;;26.50;4.75;;;;;;;4.66;100.00;101467.97;4970488;28;20081;-74
2023/01/10 06:00:27;;;;;;;29.80;4.88;;;;;;;4.67;100.00;101462.44;4969746;28;20030;-74
2023/01/10 06:02:56;;;;;;;22.48;4.30;;;;;;;4.67;100.00;101467.78;4973088;28;20035;-74
2023/01/10 06:05:23;;;;;;;23.92;4.28;;;;;;;4.68;100.00;101474.84;4971288;28;20027;-74
2023/01/10 06:07:48;;;;;;;21.35;4.28;;;;;;;4.68;100.00;101477.53;4972569;28;20035;-74
2023/01/10 06:10:14;;;;;;;21.30;3.67;;;;;;;4.73;100.00;101471.66;4971507;28;20030;-74
2023/01/10 06:12:39;;;;;;;24.45;4.72;;;;;;;4.66;100.00;101471.47;4972569;28;20043;-74
2023/01/10 06:15:06;;;;;;;26.75;5.05;;;;;;;4.67;100.00;101467.78;4972686;28;20068;-74
2023/01/10 06:17:32;;;;;;;25.88;5.55;;;;;;;4.69;100.00;101465.78;4972207;28;20394;-74
2023/01/10 06:19:57;;;;;;;23.73;4.30;;;;;;;4.67;100.00;101465.13;4971885;28;20023;-74
2023/01/10 06:22:22;;;;;;;28.60;4.88;;;;;;;4.65;100.00;101471.66;4973277;28;20038;-74
2023/01/10 06:24:48;;;;;;;29.52;4.60;;;;;;;4.66;100.00;101470.66;4971700;28;20023;-74
2023/01/10 06:27:13;;;;;;;25.73;5.07;;;;;;;4.65;100.00;101468.97;4969203;28;20037;-74
2023/01/10 06:29:38;;;;;;;25.00;4.75;;;;;;;4.66;100.00;101476.84;4969949;28;20536;-74
2023/01/10 06:32:03;;;;;;;31.23;5.18;;;;;;;4.67;100.00;101483.88;4972203;28;20039;-74
2023/01/10 06:34:29;;;;;;;25.88;5.07;;;;;;;4.69;100.00;101481.84;4971404;28;20045;-74
2023/01/10 06:36:54;;;;;;;23.58;4.32;;;;;;;4.67;100.00;101483.06;4972555;28;20405;-74
2023/01/10 06:39:19;;;;;;;30.65;5.50;;;;;;;4.65;100.00;101483.22;4973384;28;20497;-74
2023/01/10 06:41:45;;;;;;;27.13;4.82;;;;;;;4.63;100.00;101485.22;4972783;28;20030;-74
2023/01/10 06:44:10;;;;;;;27.63;4.72;;;;;;;4.62;100.00;101480.88;4972096;28;20122;-74
2023/01/10 06:46:35;;;;;;;19.70;3.78;;;;;;;4.58;100.00;101501.00;4971941;28;20058;-74
2023/01/10 06:49:01;;;;;;;27.52;5.22;;;;;;;4.55;100.00;101495.97;4971107;28;20091;-74
2023/01/10 06:51:26;;;;;;;26.73;4.43;;;;;;;4.53;100.00;101498.81;4972551;28;20039;-74
2023/01/10 06:53:52;;;;;;;23.15;4.85;;;;;;;4.53;100.00;101511.38;4972764;28;20130;-74
2023/01/10 06:56:18;;;;;;;25.60;5.90;;;;;;;4.50;100.00;101517.06;4975377;28;20138;-74
2023/01/10 06:58:43;;;;;;;25.65;5.07;;;;;;;4.50;100.00;101525.09;4977248;28;20033;-74
2023/01/10 07:01:14;;;;;;;22.75;4.43;;;;;;;4.47;100.00;101518.25;4973177;28;20045;-74
2023/01/10 07:03:39;;;;;;;23.40;4.35;;;;;;;4.47;100.00;101528.13;4976117;28;20050;-73
2023/01/10 07:06:09;;;;;;;27.55;4.55;;;;;;;4.43;100.00;101533.81;4973253;28;20038;-74
2023/01/10 07:08:35;;;;;;;29.35;5.25;;;;;;;4.40;100.00;101541.38;4977152;28;20046;-73
2023/01/10 07:11:00;;;;;;;27.10;4.75;;;;;;;4.36;100.00;101546.22;4976719;28;20050;-73
2023/01/10 07:13:26;;;;;;;28.08;4.55;;;;;;;4.36;100.00;101558.78;4976676;28;20478;-73
2023/01/10 07:15:51;;;;;;;23.58;4.40;;;;;;;4.37;100.00;101557.78;4975562;28;20031;-74
2023/01/10 07:18:16;;;;;;;29.23;4.55;;;;;;;4.37;100.00;101560.47;4975220;28;20091;-74
2023/01/10 07:20:43;;;;;;;26.33;4.65;;;;;;;4.39;100.00;101556.63;4975599;28;20043;-73
2023/01/10 07:23:08;;;;;;;28.77;4.63;;;;;;;4.39;100.00;101559.28;4976219;28;20046;-73
2023/01/10 07:25:34;;;;;;;20.95;4.38;;;;;;;4.36;100.00;101570.34;4972855;28;20039;-74
2023/01/10 07:27:59;;;;;;;25.23;4.32;;;;;;;4.37;100.00;101566.66;4972695;28;20118;-74
2023/01/10 07:30:25;;;;;;;24.95;5.22;;;;;;;4.36;100.00;101569.50;4974193;28;20070;-75
2023/01/10 07:32:55;;;;;;;30.23;5.68;;;;;;;4.36;100.00;101581.06;4974037;28;20125;-75
2023/01/10 07:35:21;;;;;;;24.15;5.20;;;;;;;4.37;100.00;101580.03;4974293;28;20425;-76
2023/01/10 07:37:46;;;;;;;28.30;4.68;;;;;;;4.34;100.00;101588.41;4974652;28;20139;-76
2023/01/10 07:40:12;;;;;;;25.52;4.93;;;;;;;4.35;100.00;101603.50;4973458;28;20027;-75
2023/01/10 07:42:37;;;;;;;26.83;5.05;;;;;;;4.35;100.00;101598.13;4975910;28;20039;-75
2023/01/10 07:45:02;;;;;;;26.38;4.47;;;;;;;4.33;100.00;101596.63;4975372;28;20039;-74
2023/01/10 07:47:28;;;;;;;26.05;4.75;;;;;;;4.35;100.00;101598.13;4975442;28;20133;-75
2023/01/10 07:49:53;;;;;;;25.15;4.43;;;;;;;4.35;100.00;101599.97;4970856;28;20459;-75
2023/01/10 07:52:18;;;;;;;22.15;4.70;;;;;;;4.37;100.00;101601.47;4976020;28;20030;-75
2023/01/10 07:54:44;;;;;;;21.08;4.05;;;;;;;4.36;100.00;101613.22;4974248;28;20034;-75
2023/01/10 07:57:19;;;;;;;22.92;4.57;;;;;;;4.36;100.00;101607.00;4972900;28;20799;-77
2023/01/10 07:59:44;;;;;;;24.35;4.68;;;;;;;4.34;100.00;101603.66;4960145;28;20027;-79
2023/01/10 08:02:10;;;;;;;25.25;4.55;;;;;;;4.34;100.00;101615.22;4971854;28;20023;-78
